Time;durP1;ratioP1;P1;durP2;ratioP2;P2;SDS_P1;SDS_P2;PMS_P1;PMS_P2;Temp;Humidity;BMP_temperature;BMP_pressure;BME280_temperature;BME280_humidity;BME280_pressure;Samples;Min_cycle;Max_cycle;Signal;HPM_P1;HPM_P2
2022/06/03 00:02:13;;;;;;;7.43;4.90;;;;;;;16.98;69.20;93782.34;5089318;28;20024;-49
2022/06/03 00:04:52;;;;;;;7.57;4.88;;;;;;;16.99;69.32;93786.59;5090632;28;20063;-51
2022/06/03 00:07:42;;;;;;;5.63;3.88;;;;;;;17.07;69.36;93779.56;5089497;28;20059;-49
2022/06/03 00:10:32;;;;;;;11.05;5.07;;;;;;;17.14;68.94;93775.94;5090604;28;20032;-49
2022/06/03 00:13:12;;;;;;;6.55;4.72;;;;;;;16.97;68.92;93787.19;5089711;28;20032;-48
2022/06/03 00:15:56;;;;;;;7.10;4.70;;;;;;;16.82;69.37;93781.84;5089333;28;20036;-48
2022/06/03 00:18:36;;;;;;;7.85;5.10;;;;;;;16.85;69.67;93779.97;5090851;28;20152;-51
2022/06/03 00:21:03;;;;;;;6.15;5.00;;;;;;;16.69;70.42;93787.81;5090704;28;20031;-49
2022/06/03 00:23:34;;;;;;;7.43;5.18;;;;;;;16.75;70.19;93790.31;5089168;28;20024;-49
2022/06/03 00:26:18;;;;;;;10.52;5.28;;;;;;;16.54;70.44;93793.63;5090718;28;20024;-49
2022/06/03 00:28:44;;;;;;;5.75;4.55;;;;;;;16.63;70.54;93790.16;5101625;28;20027;-49
2022/06/03 00:31:24;;;;;;;10.52;5.18;;;;;;;16.40;71.22;93798.06;5110531;28;20047;-49
2022/06/03 00:34:11;;;;;;;5.75;5.03;;;;;;;16.47;71.15;93797.22;5110628;28;20157;-47
2022/06/03 00:36:36;;;;;;;9.38;5.05;;;;;;;16.53;71.54;93789.34;5110631;28;20136;-50
2022/06/03 00:39:25;;;;;;;9.45;4.65;;;;;;;16.51;71.48;93789.19;5110950;28;20111;-49
2022/06/03 00:41:54;;;;;;;6.40;4.82;;;;;;;16.56;70.60;93783.38;5109696;28;20027;-49
2022/06/03 00:44:34;;;;;;;5.90;4.88;;;;;;;16.25;71.52;93790.66;5110839;28;20042;-50
2022/06/03 00:47:19;;;;;;;7.30;4.85;;;;;;;16.34;71.37;93784.41;5110834;28;20023;-48
2022/06/03 00:50:19;;;;;;;11.13;5.10;;;;;;;16.37;71.27;93788.81;5109736;28;20421;-49
2022/06/03 00:52:47;;;;;;;6.63;4.70;;;;;;;16.19;71.53;93784.63;5111350;28;20027;-48
2022/06/03 00:55:26;;;;;;;8.70;4.43;;;;;;;16.27;71.45;93788.03;5115023;28;20027;-49
2022/06/03 00:58:16;;;;;;;6.97;4.68;;;;;;;16.13;71.86;93784.16;5113560;28;20066;-49
2022/06/03 01:00:55;;;;;;;6.05;4.28;;;;;;;16.12;71.84;93785.44;5114601;28;20027;-49
2022/06/03 01:03:45;;;;;;;6.43;4.35;;;;;;;16.20;71.72;93785.34;5114561;28;20020;-49
2022/06/03 01:06:21;;;;;;;10.63;4.40;;;;;;;16.18;71.93;93777.56;5114459;28;20029;-48
2022/06/03 01:09:10;;;;;;;6.72;5.68;;;;;;;16.02;72.16;93779.09;5114769;28;20031;-49
2022/06/03 01:11:57;;;;;;;6.53;5.05;;;;;;;16.10;72.45;93784.53;5114334;28;20035;-48
2022/06/03 01:14:35;;;;;;;7.70;5.47;;;;;;;16.10;72.56;93779.72;5114399;28;20023;-49
2022/06/03 01:17:06;;;;;;;13.48;5.35;;;;;;;15.87;72.62;93774.41;5114234;28;20028;-48
2022/06/03 01:20:03;;;;;;;8.40;5.57;;;;;;;15.84;71.92;93778.38;5114521;28;20019;-48
2022/06/03 01:22:59;;;;;;;9.95;5.75;;;;;;;15.90;71.38;93775.31;5114405;28;20051;-52
2022/06/03 01:26:00;;;;;;;8.63;5.88;;;;;;;15.90;71.81;93770.50;5114514;28;20046;-50
2022/06/03 01:28:56;;;;;;;7.88;5.88;;;;;;;15.88;71.40;93767.56;5105253;28;20024;-50
2022/06/03 01:31:43;;;;;;;8.57;5.88;;;;;;;15.94;71.72;93767.28;5093626;28;20046;-48
2022/06/03 01:34:23;;;;;;;10.85;5.75;;;;;;;15.89;71.72;93769.03;5093596;28;20515;-48
2022/06/03 01:37:10;;;;;;;14.38;6.50;;;;;;;15.88;71.46;93766.81;5093497;28;20035;-48
2022/06/03 01:39:50;;;;;;;9.98;5.95;;;;;;;15.81;71.42;93762.81;5093359;28;20036;-48
2022/06/03 01:42:15;;;;;;;8.15;5.25;;;;;;;15.78;71.26;93757.66;5093649;28;20024;-49
2022/06/03 01:44:56;;;;;;;6.20;5.40;;;;;;;15.75;71.57;93756.75;5093631;28;20386;-50
2022/06/03 01:47:27;;;;;;;9.35;6.63;;;;;;;15.76;71.74;93754.72;5093544;28;20019;-50
2022/06/03 01:50:29;;;;;;;11.13;7.25;;;;;;;15.57;72.21;93754.59;5093286;28;20089;-48
2022/06/03 01:53:09;;;;;;;6.40;5.07;;;;;;;15.59;72.31;93758.25;5093529;28;20073;-50
2022/06/03 01:56:13;;;;;;;10.57;5.32;;;;;;;15.44;72.07;93763.97;5093425;28;20382;-48
2022/06/03 01:58:53;;;;;;;6.88;4.93;;;;;;;15.46;72.37;93763.44;5079865;28;20040;-49
2022/06/03 02:01:37;;;;;;;5.80;4.90;;;;;;;15.49;71.83;93765.03;5092084;28;20026;-50
2022/06/03 02:04:02;;;;;;;6.45;5.15;;;;;;;15.55;71.77;93762.78;5092434;28;20029;-51
2022/06/03 02:07:05;;;;;;;7.80;5.30;;;;;;;15.36;71.80;93757.75;5092821;28;20032;-50
2022/06/03 02:10:07;;;;;;;8.18;5.13;;;;;;;15.05;72.57;93756.59;5092770;28;20024;-49
2022/06/03 02:12:38;;;;;;;10.45;5.25;;;;;;;14.88;72.76;93759.31;5093071;28;20012;-48
2022/06/03 02:15:38;;;;;;;8.82;5.90;;;;;;;14.81;73.42;93765.72;5092812;28;20028;-53
2022/06/03 02:18:08;;;;;;;8.20;5.32;;;;;;;15.02;73.35;93771.63;5093027;28;20077;-49
2022/06/03 02:21:05;;;;;;;8.93;5.68;;;;;;;14.78;74.08;93766.84;5091662;28;20020;-50
2022/06/03 02:24:09;;;;;;;10.90;6.05;;;;;;;14.64;74.50;93763.59;5092845;28;20416;-50
2022/06/03 02:26:46;;;;;;;11.70;5.45;;;;;;;14.74;74.45;93766.50;5080984;28;20059;-48
2022/06/03 02:32:58;;;;;;;5.80;4.60;;;;;;;15.04;72.98;93766.22;5092459;28;20105;-49
2022/06/03 02:35:46;;;;;;;7.50;5.25;;;;;;;15.04;72.50;93760.66;5089268;28;20471;-49
2022/06/03 02:38:52;;;;;;;10.25;4.93;;;;;;;14.98;72.87;93763.69;5092355;28;20123;-47
2022/06/03 02:41:36;;;;;;;8.02;5.10;;;;;;;15.03;73.20;93762.72;5079608;28;20051;-50
2022/06/03 02:44:39;;;;;;;9.77;5.50;;;;;;;14.90;73.44;93773.41;5092204;28;20016;-51
2022/06/03 02:47:18;;;;;;;7.80;5.68;;;;;;;14.96;73.10;93773.91;5092475;28;20035;-49
2022/06/03 02:50:15;;;;;;;6.00;5.03;;;;;;;14.89;72.52;93772.66;5092473;28;20102;-51
2022/06/03 02:52:50;;;;;;;5.68;5.10;;;;;;;14.99;73.09;93775.53;5092309;28;20420;-48
2022/06/03 02:55:25;;;;;;;6.78;5.20;;;;;;;14.94;72.34;93780.03;5092264;28;20024;-49
2022/06/03 02:58:18;;;;;;;5.20;4.57;;;;;;;14.86;72.42;93792.50;5092191;28;20028;-49
2022/06/03 03:01:09;;;;;;;9.18;5.43;;;;;;;14.94;72.15;93790.44;5091814;28;20025;-48
2022/06/03 03:03:41;;;;;;;7.97;4.85;;;;;;;14.85;72.35;93797.34;5091822;28;20121;-48
2022/06/03 03:06:40;;;;;;;11.32;5.57;;;;;;;14.80;72.77;93794.78;5092067;28;20032;-48
2022/06/03 03:09:13;;;;;;;;;;;;;;;14.83;72.43;93796.44;5092616;28;20035;-49
2022/06/03 03:12:12;;;;;;;9.02;6.03;;;;;;;14.79;73.02;93798.91;5090432;28;20002;-50
2022/06/03 03:15:10;;;;;;;8.70;6.65;;;;;;;14.80;73.28;93786.47;5091663;28;20025;-48
2022/06/03 03:18:06;;;;;;;;;;;;;;;14.80;73.49;93792.75;5091035;28;20322;-48
2022/06/03 03:20:46;;;;;;;16.63;8.07;;;;;;;14.77;74.01;93799.44;5054055;28;19916;-52
2022/06/03 03:23:33;;;;;;;10.48;8.27;;;;;;;14.79;74.23;93796.13;5091809;28;20111;-49
2022/06/03 03:26:09;;;;;;;11.27;7.85;;;;;;;14.79;74.16;93790.56;5091490;28;20019;-50
2022/06/03 03:29:04;;;;;;;15.77;8.57;;;;;;;14.72;75.00;93792.09;5091068;28;20104;-48
2022/06/03 03:31:30;;;;;;;23.98;8.95;;;;;;;14.84;74.73;93798.66;5091646;28;20044;-48
2022/06/03 03:34:15;;;;;;;31.38;9.15;;;;;;;14.88;74.12;93810.09;5091283;28;20561;-49
2022/06/03 03:36:59;;;;;;;17.77;8.75;;;;;;;14.91;74.17;93806.19;5090868;28;20109;-50
2022/06/03 03:40:01;;;;;;;10.82;7.22;;;;;;;14.91;73.47;93797.13;5091205;28;20032;-50
2022/06/03 03:43:12;;;;;;;11.55;7.32;;;;;;;14.96;72.76;93805.25;5090968;28;20639;-50
2022/06/03 03:46:00;;;;;;;9.30;6.60;;;;;;;14.94;72.18;93804.31;5082335;28;20054;-49
2022/06/03 03:49:26;;;;;;;7.63;6.40;;;;;;;14.83;72.57;93811.09;5091078;28;20679;-49
2022/06/03 03:52:03;;;;;;;14.88;6.45;;;;;;;14.76;73.99;93809.09;5048234;28;20087;-49
2022/06/03 03:55:06;;;;;;;10.07;6.35;;;;;;;14.85;73.44;93804.94;5048209;28;20028;-49
2022/06/03 03:57:43;;;;;;;11.52;6.88;;;;;;;14.78;73.69;93802.97;5081775;28;20617;-49
2022/06/03 04:00:08;;;;;;;13.55;9.57;;;;;;;14.81;73.94;93810.19;5091075;28;20107;-49
2022/06/03 04:03:01;;;;;;;14.65;10.48;;;;;;;14.96;73.92;93818.41;5091021;28;20127;-49
2022/06/03 04:06:02;;;;;;;12.55;9.50;;;;;;;15.09;73.59;93812.53;5089511;28;20024;-49
2022/06/03 04:08:42;;;;;;;11.30;10.05;;;;;;;15.14;74.07;93817.84;5067998;28;20399;-50
2022/06/03 04:11:26;;;;;;;16.95;9.60;;;;;;;15.28;74.90;93817.56;5088079;28;20519;-50
2022/06/03 04:14:11;;;;;;;21.83;9.73;;;;;;;15.26;75.03;93820.91;5090665;28;20086;-51
2022/06/03 04:16:43;;;;;;;11.32;9.25;;;;;;;15.35;75.08;93813.97;5090816;28;20035;-50
2022/06/03 04:19:36;;;;;;;12.60;9.32;;;;;;;15.38;75.21;93812.81;5090492;28;20020;-49
2022/06/03 04:22:20;;;;;;;14.68;9.05;;;;;;;15.57;75.28;93810.97;5089246;28;20027;-48
2022/06/03 04:25:21;;;;;;;26.40;9.60;;;;;;;15.65;75.43;93816.47;5090507;28;20028;-51
2022/06/03 04:28:08;;;;;;;16.73;11.27;;;;;;;15.56;76.44;93819.91;5088496;28;20012;-52
2022/06/03 04:31:12;;;;;;;16.38;10.60;;;;;;;15.69;76.58;93825.13;5090292;28;20046;-50
2022/06/03 04:33:40;;;;;;;13.45;9.50;;;;;;;15.83;76.86;93831.88;5074106;28;20044;-50
2022/06/03 04:36:36;;;;;;;14.07;10.27;;;;;;;15.98;77.06;93834.47;5090820;28;20089;-49
2022/06/03 04:39:32;;;;;;;12.68;9.13;;;;;;;16.09;75.90;93833.22;5090279;28;20073;-51
2022/06/03 04:42:09;;;;;;;19.90;8.88;;;;;;;16.31;75.05;93835.72;5090261;28;20031;-50
2022/06/03 04:45:11;;;;;;;12.77;9.63;;;;;;;16.55;73.77;93834.84;5090570;28;20047;-50
2022/06/03 04:48:12;;;;;;;10.95;7.68;;;;;;;16.60;74.59;93839.44;5090202;28;20031;-48
2022/06/03 04:51:11;;;;;;;15.68;8.25;;;;;;;16.83;74.65;93841.16;5090492;28;20592;-49
2022/06/03 04:54:11;;;;;;;12.02;7.10;;;;;;;16.92;74.80;93829.28;5090212;28;20086;-49
2022/06/03 04:56:48;;;;;;;10.30;7.45;;;;;;;17.04;75.68;93842.13;5090485;28;20028;-49
2022/06/03 05:00:01;;;;;;;6.72;5.82;;;;;;;17.24;76.99;93845.69;5090158;28;20490;-50
2022/06/03 05:02:42;;;;;;;7.30;5.90;;;;;;;17.37;77.82;93853.66;5067409;28;20040;-49
2022/06/03 05:05:16;;;;;;;11.32;6.20;;;;;;;17.50;77.56;93863.72;5067542;28;20695;-53
2022/06/03 05:07:42;;;;;;;8.90;5.75;;;;;;;17.74;77.12;93865.50;5081472;28;20028;-48
2022/06/03 05:10:45;;;;;;;7.10;4.88;;;;;;;17.94;76.77;93861.44;5090012;28;20024;-49
2022/06/03 05:13:57;;;;;;;11.65;6.63;;;;;;;18.05;77.67;93860.84;5089986;28;20539;-50
2022/06/03 05:16:42;;;;;;;12.52;6.88;;;;;;;18.24;77.37;93858.03;5069875;28;20033;-48
2022/06/03 05:19:19;;;;;;;10.85;6.53;;;;;;;18.42;77.60;93864.22;5089973;28;20032;-51
2022/06/03 05:22:06;;;;;;;12.85;5.97;;;;;;;18.53;78.62;93877.63;5090160;28;20379;-50
2022/06/03 05:24:43;;;;;;;19.52;5.90;;;;;;;18.83;78.26;93863.72;5089786;28;20056;-49
2022/06/03 05:27:29;;;;;;;8.95;6.40;;;;;;;19.10;77.16;93862.75;5090192;28;20511;-51
2022/06/03 05:30:31;;;;;;;10.00;5.80;;;;;;;19.25;76.67;93865.91;5089547;28;20044;-52
2022/06/03 05:33:18;;;;;;;10.48;5.85;;;;;;;19.52;76.21;93865.66;5089842;28;20493;-50
2022/06/03 05:36:48;;;;;;;10.07;5.60;;;;;;;19.66;73.68;93863.81;5089783;28;20035;-49
2022/06/03 05:39:19;;;;;;;7.75;5.68;;;;;;;19.82;73.42;93872.56;5067222;28;20027;-49
2022/06/03 05:42:25;;;;;;;8.85;5.97;;;;;;;19.93;73.57;93863.47;5089428;28;20035;-52
2022/06/03 05:45:27;;;;;;;10.68;7.07;;;;;;;20.02;73.42;93857.06;5093721;28;20055;-50
2022/06/03 05:48:06;;;;;;;28.92;8.55;;;;;;;20.12;72.76;93850.06;5093338;28;20031;-49
2022/06/03 05:50:35;;;;;;;10.00;7.57;;;;;;;20.21;73.13;93856.94;5092167;28;20180;-49
2022/06/03 05:53:32;;;;;;;13.07;7.22;;;;;;;20.32;72.65;93845.78;5093508;28;20031;-50
2022/06/03 05:56:16;;;;;;;9.32;7.75;;;;;;;20.48;72.13;93840.50;5092050;28;20020;-51
2022/06/03 05:58:44;;;;;;;33.25;8.65;;;;;;;20.53;72.11;93841.47;5093026;28;20031;-49
2022/06/03 06:01:33;;;;;;;23.40;9.23;;;;;;;20.61;71.47;93837.13;5091804;28;20021;-49
2022/06/03 06:04:16;;;;;;;13.57;7.00;;;;;;;20.72;69.58;93844.84;5072232;28;20043;-50
2022/06/03 06:07:11;;;;;;;11.77;6.00;;;;;;;20.86;69.33;93839.34;5091696;28;20110;-51
2022/06/03 06:09:46;;;;;;;8.13;6.68;;;;;;;21.04;68.19;93838.44;5091690;28;20517;-50
2022/06/03 06:12:29;;;;;;;9.80;6.22;;;;;;;21.04;68.67;93838.44;5093142;28;20439;-50
2022/06/03 06:15:30;;;;;;;10.35;6.50;;;;;;;21.17;68.00;93831.50;5092871;28;20024;-51
2022/06/03 06:17:58;;;;;;;13.00;6.05;;;;;;;21.23;67.63;93831.84;5093119;28;20390;-50
2022/06/03 06:20:45;;;;;;;8.27;5.83;;;;;;;21.29;67.73;93829.41;5092656;28;20117;-49
2022/06/03 06:23:38;;;;;;;10.30;5.82;;;;;;;21.39;68.69;93826.47;5100855;28;20023;-49
2022/06/03 06:26:12;;;;;;;8.23;5.43;;;;;;;21.56;67.02;93814.84;5113024;28;20031;-52
2022/06/03 06:29:19;;;;;;;5.93;5.15;;;;;;;21.70;68.10;93807.28;5102312;28;20106;-51
2022/06/03 06:32:06;;;;;;;7.05;5.35;;;;;;;21.95;66.35;93807.34;5091627;28;20040;-49
2022/06/03 06:34:59;;;;;;;8.30;4.63;;;;;;;22.28;65.39;93816.28;5092308;28;20570;-50
2022/06/03 06:38:15;;;;;;;10.00;4.97;;;;;;;22.68;63.98;93817.09;5092338;28;20035;-50
2022/06/03 06:41:06;;;;;;;8.65;4.60;;;;;;;23.10;62.12;93814.50;5074222;28;20043;-50
2022/06/03 06:43:41;;;;;;;8.18;4.53;;;;;;;23.60;59.62;93812.91;5091343;28;20032;-49
2022/06/03 06:46:27;;;;;;;6.38;4.63;;;;;;;23.81;59.72;93818.94;5091123;28;20116;-50
2022/06/03 06:49:11;;;;;;;9.52;5.20;;;;;;;23.93;58.29;93813.91;5091769;28;20067;-50
2022/06/03 06:51:40;;;;;;;17.95;6.10;;;;;;;23.98;60.75;93817.66;5092050;28;20069;-51
2022/06/03 06:54:17;;;;;;;6.95;4.38;;;;;;;24.00;59.48;93821.31;5092355;28;20038;-49
2022/06/03 06:56:57;;;;;;;6.07;4.60;;;;;;;24.06;59.75;93818.81;5092099;28;20028;-50
2022/06/03 06:59:35;;;;;;;7.75;4.75;;;;;;;24.23;58.19;93811.91;5092221;28;20416;-50
2022/06/03 07:02:12;;;;;;;8.15;4.40;;;;;;;24.63;58.37;93813.84;5091814;28;20649;-49
2022/06/03 07:04:42;;;;;;;30.67;6.53;;;;;;;25.02;56.83;93813.59;5090651;28;20036;-50
2022/06/03 07:07:28;;;;;;;9.43;4.80;;;;;;;25.53;53.75;93814.53;5090634;28;20516;-49
2022/06/03 07:10:05;;;;;;;8.60;3.85;;;;;;;25.83;50.04;93817.22;5090897;28;20028;-50
2022/06/03 07:12:37;;;;;;;5.07;4.43;;;;;;;26.36;49.43;93820.22;5091896;28;20036;-49
2022/06/03 07:15:06;;;;;;;9.60;4.20;;;;;;;27.18;48.06;93822.81;5090803;28;20032;-49
2022/06/03 07:20:21;;;;;;;6.57;3.05;;;;;;;27.66;45.99;93816.84;5091573;28;20600;-48
2022/06/03 07:22:55;;;;;;;4.40;3.47;;;;;;;28.45;45.37;93825.31;5091545;28;20554;-50
2022/06/03 07:25:48;;;;;;;3.67;3.35;;;;;;;29.50;41.21;93820.16;5091386;28;20031;-49
2022/06/03 07:28:40;;;;;;;6.00;3.33;;;;;;;29.83;41.72;93828.22;5097001;28;20024;-48
2022/06/03 07:31:24;;;;;;;4.80;3.20;;;;;;;30.84;39.69;93828.78;5091651;28;20040;-52
2022/06/03 07:34:28;;;;;;;6.70;3.40;;;;;;;30.96;38.42;93825.53;5110757;28;20103;-52
2022/06/03 07:36:59;;;;;;;8.90;3.72;;;;;;;32.03;38.25;93825.81;5100433;28;20099;-50
2022/06/03 07:39:48;;;;;;;7.28;3.97;;;;;;;33.26;35.01;93825.88;5110655;28;20035;-49
2022/06/03 07:42:58;;;;;;;7.80;2.85;;;;;;;34.61;31.33;93829.78;5111422;28;20038;-50
2022/06/03 07:45:37;;;;;;;4.45;3.10;;;;;;;34.69;31.14;93833.44;5100616;28;20027;-49
2022/06/03 07:48:14;;;;;;;7.88;3.15;;;;;;;35.16;30.71;93830.97;5110157;28;20023;-49
2022/06/03 07:50:51;;;;;;;11.77;2.95;;;;;;;36.41;28.87;93830.28;5110193;28;20490;-51
2022/06/03 07:53:23;;;;;;;8.05;3.40;;;;;;;36.60;27.79;93830.34;5110127;28;20078;-50
2022/06/03 07:55:53;;;;;;;4.22;2.55;;;;;;;36.35;27.84;93838.16;5111297;28;20038;-49
2022/06/03 07:58:20;;;;;;;5.63;3.40;;;;;;;36.92;25.94;93828.28;5111443;28;20489;-48
2022/06/03 08:00:46;;;;;;;5.10;2.60;;;;;;;37.42;26.11;93829.72;5111464;28;20023;-48
2022/06/03 08:03:18;;;;;;;3.80;2.53;;;;;;;37.69;24.82;93831.09;5110410;28;20028;-48
2022/06/03 08:05:46;;;;;;;3.58;2.72;;;;;;;37.94;25.06;93836.13;5111317;28;20094;-47
2022/06/03 08:11:00;;;;;;;5.13;2.30;;;;;;;39.45;20.68;93837.47;5109311;28;19914;-48
2022/06/03 08:13:50;;;;;;;2.63;2.00;;;;;;;39.00;22.19;93837.09;5111226;28;20110;-49
2022/06/03 08:16:37;;;;;;;5.20;2.78;;;;;;;38.83;22.29;93835.75;5110869;28;20023;-48
2022/06/03 08:19:16;;;;;;;3.70;2.30;;;;;;;39.08;22.98;93836.28;5110862;28;20033;-49
2022/06/03 08:21:46;;;;;;;6.35;2.65;;;;;;;38.95;21.98;93844.34;5110996;28;20040;-47
2022/06/03 08:24:21;;;;;;;4.63;2.38;;;;;;;39.16;22.33;93836.97;5109891;28;20034;-47
2022/06/03 08:26:56;;;;;;;4.22;2.60;;;;;;;39.02;22.58;93837.06;5110863;27;20519;-49
2022/06/03 08:29:32;;;;;;;4.53;2.70;;;;;;;39.43;21.63;93851.94;5110122;28;20157;-50
2022/06/03 08:31:58;;;;;;;5.43;2.72;;;;;;;39.09;20.67;93846.41;5109616;28;20024;-48
2022/06/03 08:34:36;;;;;;;3.38;2.25;;;;;;;39.16;21.13;93850.69;5109828;28;20410;-47
2022/06/03 08:37:02;;;;;;;4.90;2.65;;;;;;;39.30;21.08;93847.72;5110671;28;20104;-49
2022/06/03 08:39:31;;;;;;;3.17;2.50;;;;;;;39.22;21.72;93847.78;5110616;28;20020;-49
2022/06/03 08:42:02;;;;;;;5.82;2.97;;;;;;;38.78;21.84;93851.66;5109702;28;20035;-46
2022/06/03 08:44:54;;;;;;;3.42;2.13;;;;;;;38.58;22.22;93852.47;5111005;28;20036;-48
2022/06/03 08:47:26;;;;;;;6.85;2.72;;;;;;;38.14;21.92;93855.50;5109669;28;20131;-47
2022/06/03 08:50:02;;;;;;;5.10;2.78;;;;;;;37.89;22.17;93852.00;5109402;28;20173;-48
2022/06/03 08:53:18;;;;;;;5.43;2.75;;;;;;;38.04;22.44;93849.06;5110541;28;20084;-48
2022/06/03 08:55:50;;;;;;;5.63;3.28;;;;;;;38.29;23.29;93850.44;5067623;28;20037;-46
2022/06/03 08:58:49;;;;;;;4.00;2.30;;;;;;;38.52;21.19;93851.78;5067567;28;20116;-46
2022/06/03 09:01:41;;;;;;;4.82;2.78;;;;;;;39.29;21.54;93849.88;5102469;28;20042;-50
2022/06/03 09:04:20;;;;;;;19.95;3.95;;;;;;;39.34;21.55;93850.56;5109629;28;20035;-49
2022/06/03 09:06:58;;;;;;;6.95;2.60;;;;;;;39.57;20.90;93848.94;5110438;28;20035;-48
2022/06/03 09:09:35;;;;;;;3.90;2.50;;;;;;;39.73;19.90;93850.94;5110739;28;20058;-48
2022/06/03 09:12:09;;;;;;;3.00;2.13;;;;;;;40.16;19.75;93857.75;5110452;28;20022;-48
2022/06/03 09:14:35;;;;;;;5.45;2.38;;;;;;;40.56;20.05;93856.56;5112502;28;20072;-48
2022/06/03 09:17:07;;;;;;;5.78;2.67;;;;;;;40.32;20.35;93856.84;5113379;28;20027;-47
2022/06/03 09:19:43;;;;;;;5.40;2.42;;;;;;;40.66;20.05;93856.44;5113326;28;20033;-50
2022/06/03 09:22:17;;;;;;;4.50;2.08;;;;;;;40.46;19.28;93863.19;5114431;27;20024;-47
2022/06/03 09:24:43;;;;;;;4.65;2.25;;;;;;;40.26;19.45;93856.94;5113283;28;20019;-49
2022/06/03 09:27:10;;;;;;;5.43;2.78;;;;;;;39.59;20.85;93856.88;5114476;28;20050;-49
2022/06/03 09:29:36;;;;;;;4.75;2.50;;;;;;;39.20;22.43;93853.56;5112532;28;20047;-48
2022/06/03 09:32:04;;;;;;;5.57;2.80;;;;;;;38.87;23.41;93858.09;5113970;28;20497;-48
2022/06/03 09:34:42;;;;;;;2.77;2.40;;;;;;;38.63;22.52;93845.22;5114288;28;20030;-48
2022/06/03 09:37:21;;;;;;;;;;;;;;;38.89;22.50;93861.69;5114804;28;20444;-49
2022/06/03 09:39:49;;;;;;;6.03;2.63;;;;;;;39.18;22.20;93856.47;5112785;28;19926;-48
2022/06/03 09:42:17;;;;;;;3.35;2.35;;;;;;;39.47;21.44;93854.78;5112893;28;20121;-48
2022/06/03 09:44:44;;;;;;;2.90;2.35;;;;;;;39.88;21.92;93852.25;5112918;28;20462;-48
2022/06/03 09:47:11;;;;;;;5.87;2.67;;;;;;;39.61;22.00;93843.13;5112891;28;20015;-47
2022/06/03 09:49:36;;;;;;;4.35;2.28;;;;;;;39.62;21.14;93849.59;5113989;27;20443;-49
2022/06/03 09:52:07;;;;;;;8.75;3.80;;;;;;;38.26;21.97;93843.97;5112694;28;20020;-52
2022/06/03 09:54:36;;;;;;;7.00;3.15;;;;;;;38.28;24.09;93849.72;5112736;28;20027;-47
2022/06/03 09:57:15;;;;;;;3.90;2.53;;;;;;;38.63;22.72;93850.28;5112670;28;20023;-48
2022/06/03 09:59:49;;;;;;;4.88;2.80;;;;;;;39.20;21.88;93865.81;5112259;28;20023;-47
2022/06/03 10:02:15;;;;;;;3.35;2.58;;;;;;;38.35;22.18;93859.81;5113762;28;20028;-48
2022/06/03 10:04:40;;;;;;;2.78;2.38;;;;;;;38.21;22.40;93851.16;5113633;28;20028;-47
2022/06/03 10:07:06;;;;;;;4.18;2.88;;;;;;;37.79;25.22;93848.41;5113370;28;20621;-47
2022/06/03 10:12:49;;;;;;;4.97;2.58;;;;;;;37.27;25.49;93854.19;5112371;28;20072;-48
2022/06/03 10:18:23;;;;;;;5.15;3.00;;;;;;;36.81;27.94;93866.34;5112270;28;20030;-48
2022/06/03 10:20:54;;;;;;;11.85;3.30;;;;;;;37.13;28.60;93867.16;5112823;28;20027;-47
2022/06/03 10:23:21;;;;;;;4.18;3.10;;;;;;;37.17;24.57;93858.50;5111858;28;20024;-46
2022/06/03 10:25:52;;;;;;;5.65;2.85;;;;;;;36.88;24.61;93857.03;5112651;28;20468;-46
2022/06/03 10:28:19;;;;;;;5.60;2.90;;;;;;;36.17;26.01;93858.94;5112626;28;20683;-46
2022/06/03 10:30:46;;;;;;;11.02;4.20;;;;;;;35.81;27.98;93861.59;5112743;28;20043;-47
2022/06/03 10:33:19;;;;;;;5.22;2.95;;;;;;;36.19;26.15;93864.00;5112868;28;20059;-50
2022/06/03 10:35:45;;;;;;;19.02;4.18;;;;;;;36.85;26.76;93867.09;5112837;28;20035;-48
2022/06/03 10:38:10;;;;;;;3.45;2.42;;;;;;;37.37;24.62;93859.97;5112833;28;20485;-47
2022/06/03 10:40:39;;;;;;;4.25;3.00;;;;;;;37.31;26.43;93863.56;5112902;28;20047;-47
2022/06/03 10:43:06;;;;;;;4.47;2.80;;;;;;;37.35;25.93;93857.81;5112641;28;20522;-47
2022/06/03 10:45:34;;;;;;;4.35;2.90;;;;;;;37.19;26.36;93849.88;5112937;28;20028;-47
2022/06/03 10:47:59;;;;;;;4.72;2.80;;;;;;;37.35;25.10;93865.72;5112597;27;20027;-49
2022/06/03 10:50:33;;;;;;;6.75;2.72;;;;;;;37.50;25.67;93864.28;5112516;28;20042;-48
2022/06/03 11:01:42;;;;;;;7.72;3.22;;;;;;;36.25;26.68;93861.88;5112422;28;20580;-47
2022/06/03 11:04:27;;;;;;;6.07;2.72;;;;;;;36.03;26.67;93852.41;5112279;28;20024;-47
2022/06/03 11:06:54;;;;;;;7.65;3.50;;;;;;;35.86;30.32;93853.72;5112556;28;20107;-48
2022/06/03 11:09:21;;;;;;;9.52;3.03;;;;;;;35.33;28.23;93856.25;5112221;28;20554;-48
2022/06/03 11:12:04;;;;;;;7.70;3.47;;;;;;;34.80;30.02;93860.06;5112112;28;20057;-49
2022/06/03 11:14:50;;;;;;;3.47;3.17;;;;;;;34.83;28.96;93847.91;5112354;28;20055;-48
2022/06/03 11:17:18;;;;;;;4.05;2.97;;;;;;;34.21;29.64;93844.34;5111556;28;20092;-48
2022/06/03 11:19:47;;;;;;;8.32;3.13;;;;;;;33.63;29.90;93845.00;5111931;28;20541;-49
2022/06/03 11:22:16;;;;;;;4.28;2.90;;;;;;;33.82;31.37;93843.13;5111773;28;20055;-48
2022/06/03 11:24:50;;;;;;;4.15;2.85;;;;;;;33.26;29.92;93833.72;5112127;28;20081;-47
2022/06/03 11:27:19;;;;;;;4.05;3.28;;;;;;;32.99;32.61;93831.81;5112145;27;20389;-47
2022/06/03 11:29:44;;;;;;;4.80;3.13;;;;;;;32.73;31.12;93826.38;5111174;28;20044;-47
2022/06/03 11:32:12;;;;;;;5.32;3.92;;;;;;;32.41;32.76;93835.09;5110832;28;20026;-49
2022/06/03 11:34:42;;;;;;;7.90;3.53;;;;;;;31.86;32.60;93839.00;5110406;28;20504;-48
2022/06/03 11:37:35;;;;;;;5.82;3.78;;;;;;;31.72;34.73;93840.84;5109599;28;20062;-48
2022/06/03 11:40:05;;;;;;;5.35;3.33;;;;;;;31.28;34.31;93849.09;5107040;28;20070;-46
2022/06/03 11:42:57;;;;;;;5.82;3.65;;;;;;;31.14;33.08;93840.22;5110405;28;20067;-47
2022/06/03 11:45:49;;;;;;;5.28;3.75;;;;;;;30.72;35.46;93819.94;5111431;28;20027;-47
2022/06/03 11:48:37;;;;;;;7.82;3.42;;;;;;;30.75;36.06;93830.00;5110243;28;20032;-48
2022/06/03 11:51:03;;;;;;;;;;;;;;;30.75;35.88;93824.31;5111681;28;20035;-49
2022/06/03 11:53:31;;;;;;;5.70;3.35;;;;;;;30.77;35.37;93824.34;5111629;28;20308;-46
2022/06/03 11:56:00;;;;;;;11.23;4.28;;;;;;;30.72;37.31;93817.09;5111253;28;20059;-48
2022/06/03 11:58:53;;;;;;;4.22;3.40;;;;;;;30.77;35.94;93815.06;5111218;28;20030;-46
2022/06/03 12:01:41;;;;;;;4.43;3.60;;;;;;;30.81;34.26;93810.19;5111449;28;20023;-46
2022/06/03 12:04:42;;;;;;;4.25;3.50;;;;;;;30.89;38.48;93801.84;5105417;28;20103;-46
2022/06/03 12:07:19;;;;;;;7.82;3.75;;;;;;;30.85;35.78;93812.41;5111437;28;20027;-48
2022/06/03 12:09:48;;;;;;;5.15;3.63;;;;;;;30.80;36.83;93817.28;5111091;28;20492;-47
2022/06/03 12:15:28;;;;;;;4.07;3.10;;;;;;;30.51;35.33;93818.00;5111303;28;20128;-47
2022/06/03 12:17:54;;;;;;;6.03;3.40;;;;;;;30.49;36.97;93826.50;5111134;28;20027;-49
2022/06/03 12:20:31;;;;;;;4.88;3.42;;;;;;;30.66;36.18;93828.34;5109990;28;20412;-47
2022/06/03 12:22:58;;;;;;;3.63;3.30;;;;;;;30.52;35.34;93819.44;5110864;28;20080;-47
2022/06/03 12:25:26;;;;;;;6.72;3.95;;;;;;;30.34;35.73;93830.38;5109826;28;20115;-48
2022/06/03 12:27:54;;;;;;;6.43;3.97;;;;;;;30.32;37.40;93816.78;5110495;28;20489;-46
2022/06/03 12:30:35;;;;;;;5.00;4.13;;;;;;;30.18;37.63;93819.25;5110749;28;20494;-47
2022/06/03 12:33:04;;;;;;;5.97;3.90;;;;;;;30.11;36.80;93814.78;5111153;28;20016;-48
2022/06/03 12:35:47;;;;;;;6.05;3.35;;;;;;;29.76;36.38;93815.22;5109564;28;20023;-47
2022/06/03 12:38:19;;;;;;;5.32;3.92;;;;;;;29.34;35.34;93820.38;5110768;28;20024;-47
2022/06/03 12:40:45;;;;;;;5.88;3.92;;;;;;;28.96;36.54;93817.06;5110535;28;20062;-48
2022/06/03 12:43:45;;;;;;;5.40;3.97;;;;;;;29.00;38.27;93810.78;5110693;28;20027;-47
2022/06/03 12:46:38;;;;;;;9.60;4.40;;;;;;;29.05;39.38;93820.88;5110650;28;20085;-49
2022/06/03 12:49:36;;;;;;;5.28;3.92;;;;;;;28.74;40.98;93819.19;5112281;28;20104;-49
2022/06/03 12:52:08;;;;;;;8.13;4.38;;;;;;;28.62;41.86;93809.53;5114844;28;20508;-47
2022/06/03 12:54:36;;;;;;;9.43;4.07;;;;;;;28.58;40.92;93807.31;5113574;28;20027;-50
2022/06/03 12:57:10;;;;;;;4.32;3.63;;;;;;;28.57;38.84;93805.09;5115111;28;20016;-47
2022/06/03 12:59:57;;;;;;;8.88;3.83;;;;;;;28.71;37.01;93814.09;5114884;28;20085;-51
2022/06/03 13:02:27;;;;;;;7.80;3.65;;;;;;;28.72;38.08;93807.75;5114568;28;20504;-48
2022/06/03 13:04:53;;;;;;;3.70;3.35;;;;;;;28.72;37.45;93799.22;5113409;28;20073;-47